Time;durP1;ratioP1;P1;durP2;ratioP2;P2;SDS_P1;SDS_P2;PMS_P1;PMS_P2;Temp;Humidity;BMP_temperature;BMP_pressure;BME280_temperature;BME280_humidity;BME280_pressure;Samples;Min_cycle;Max_cycle;Signal;HPM_P1;HPM_P2
2022/05/14 00:00:51;;;;;;;4.80;4.32;;;23.30;91.90;;;;;;5885368;29;94140;-66
2022/05/14 00:03:53;;;;;;;5.13;4.30;;;23.30;91.90;;;;;;5895147;29;93719;-65
2022/05/14 00:07:15;;;;;;;5.93;4.63;;;23.30;91.90;;;;;;5900853;29;94119;-65
2022/05/14 00:10:17;;;;;;;5.00;4.50;;;23.30;92.00;;;;;;5898428;29;93147;-65
2022/05/14 00:13:18;;;;;;;5.63;5.03;;;23.30;91.90;;;;;;5899389;29;95154;-65
2022/05/14 00:16:21;;;;;;;6.05;4.80;;;23.30;91.90;;;;;;5903565;29;94155;-65
2022/05/14 00:19:23;;;;;;;4.88;4.38;;;23.30;92.30;;;;;;5907496;29;94129;-65
2022/05/14 05:43:23;;;;;;;4.25;3.85;;;23.20;87.80;;;;;;5851195;29;93759;-64
2022/05/14 05:46:24;;;;;;;4.05;3.65;;;23.20;87.70;;;;;;5819971;29;94938;-66
2022/05/14 05:49:26;;;;;;;4.07;3.67;;;23.20;87.80;;;;;;5819148;29;95910;-66
2022/05/14 05:52:28;;;;;;;4.10;3.67;;;23.20;88.00;;;;;;5823795;29;94508;-65
2022/05/14 05:58:51;;;;;;;4.68;3.80;;;23.20;88.10;;;;;;5817864;29;92957;-65
2022/05/14 06:01:54;;;;;;;4.15;3.75;;;23.20;88.20;;;;;;5818344;29;92596;-65
2022/05/14 06:04:56;;;;;;;4.03;3.72;;;23.20;88.20;;;;;;5823516;30;94143;-65
2022/05/14 06:07:58;;;;;;;4.50;3.60;;;23.20;88.40;;;;;;5821715;29;94194;-66
2022/05/14 06:11:01;;;;;;;3.83;3.53;;;23.20;88.50;;;;;;5821927;29;93213;-66
2022/05/14 06:14:04;;;;;;;4.30;3.75;;;23.20;88.50;;;;;;5824138;29;94215;-64
2022/05/14 06:17:06;;;;;;;4.03;3.63;;;23.20;88.60;;;;;;5823551;29;93034;-64
2022/05/14 06:20:12;;;;;;;3.95;3.55;;;23.20;88.70;;;;;;5823555;29;95077;-66
2022/05/14 06:23:14;;;;;;;4.15;3.75;;;23.20;88.80;;;;;;5834105;29;94139;-65
2022/05/14 06:26:16;;;;;;;4.28;3.88;;;23.20;88.80;;;;;;5827489;29;94125;-67
2022/05/14 06:29:19;;;;;;;4.28;3.70;;;23.20;88.90;;;;;;5820329;30;94135;-63
2022/05/14 06:32:21;;;;;;;4.80;3.88;;;23.20;89.10;;;;;;5834528;29;92965;-66
2022/05/14 06:35:23;;;;;;;3.60;3.30;;;23.20;89.80;;;;;;5832673;30;94121;-65
2022/05/14 06:38:27;;;;;;;3.97;3.45;;;23.20;89.60;;;;;;5821183;29;94198;-65
2022/05/14 06:41:29;;;;;;;3.80;3.42;;;23.20;90.00;;;;;;5840497;29;93349;-65
2022/05/14 06:44:34;;;;;;;4.82;3.63;;;23.20;89.80;;;;;;5830023;29;94150;-64
2022/05/14 06:47:36;;;;;;;5.05;3.90;;;23.20;89.80;;;;;;5831596;29;93092;-64
2022/05/14 06:50:44;;;;;;;4.10;3.50;;;23.30;89.60;;;;;;5832516;29;95073;-64
2022/05/14 06:53:46;;;;;;;4.07;3.50;;;23.20;89.40;;;;;;5821427;30;93337;-64
2022/05/14 06:56:49;;;;;;;8.70;6.13;;;23.20;89.30;;;;;;5838753;29;94114;-65
2022/05/14 06:59:52;;;;;;;8.18;4.68;;;23.20;92.30;;;;;;5838305;29;92920;-65
2022/05/14 07:06:37;;;;;;;6.43;5.00;;;23.20;92.60;;;;;;5817170;29;94152;-64
2022/05/14 07:09:37;;;;;;;5.75;4.60;;;23.30;90.90;;;;;;5822450;29;93717;-64
2022/05/14 07:12:39;;;;;;;4.90;3.90;;;23.20;90.60;;;;;;5820017;29;93626;-64
2022/05/14 07:15:42;;;;;;;5.70;4.22;;;23.20;90.30;;;;;;5829663;29;94150;-64
2022/05/14 07:18:44;;;;;;;6.38;4.43;;;23.20;90.20;;;;;;5819099;29;94443;-63
2022/05/14 07:21:48;;;;;;;4.30;3.90;;;23.20;90.10;;;;;;5818603;29;94414;-64
2022/05/14 07:24:51;;;;;;;4.38;3.97;;;23.20;90.00;;;;;;5819841;29;94318;-64
2022/05/14 07:27:53;;;;;;;6.90;5.57;;;23.20;90.00;;;;;;5835510;29;94168;-64
2022/05/14 07:30:57;;;;;;;6.45;5.00;;;23.20;90.00;;;;;;5836070;29;94269;-64
2022/05/14 07:33:59;;;;;;;7.65;4.78;;;23.20;91.10;;;;;;5819989;29;94093;-64
2022/05/14 07:37:06;;;;;;;5.13;3.85;;;23.20;90.70;;;;;;5823818;29;94650;-64
2022/05/14 07:40:11;;;;;;;6.13;3.95;;;23.10;90.70;;;;;;5835372;29;94162;-63
2022/05/14 07:43:17;;;;;;;8.25;4.05;;;23.20;91.00;;;;;;5845993;29;93655;-66
2022/05/14 07:46:26;;;;;;;5.93;4.07;;;23.20;91.60;;;;;;5843665;29;94283;-64
2022/05/14 07:49:28;;;;;;;7.72;4.15;;;23.20;91.90;;;;;;5828908;29;94339;-64
2022/05/14 07:52:31;;;;;;;6.32;3.90;;;23.20;91.60;;;;;;5835442;29;95409;-65
2022/05/14 07:55:34;;;;;;;4.95;3.88;;;23.20;91.30;;;;;;5824002;30;94135;-65
2022/05/14 07:58:36;;;;;;;5.75;3.50;;;23.20;91.20;;;;;;5835859;29;94170;-65
2022/05/14 08:01:40;;;;;;;7.60;3.30;;;23.20;91.20;;;;;;5836117;29;94510;-65
2022/05/14 08:04:42;;;;;;;3.88;3.47;;;23.20;91.00;;;;;;5825876;29;94507;-65
2022/05/14 08:07:44;;;;;;;4.15;3.53;;;23.20;90.80;;;;;;5813092;30;94607;-65
2022/05/14 08:10:46;;;;;;;14.40;4.20;;;23.20;90.90;;;;;;5831494;30;94348;-64
2022/05/14 08:13:48;;;;;;;7.53;3.30;;;23.30;90.50;;;;;;5823581;29;93426;-64
2022/05/14 08:16:51;;;;;;;7.88;3.40;;;23.20;90.00;;;;;;5842868;29;92853;-65
2022/05/14 08:19:53;;;;;;;5.88;3.28;;;23.20;89.50;;;;;;5828310;30;94349;-66
2022/05/14 08:26:14;;;;;;;5.82;3.00;;;23.20;89.90;;;;;;5835140;29;92379;-64
2022/05/14 08:29:16;;;;;;;6.60;3.42;;;23.20;89.30;;;;;;5834643;29;93330;-64
2022/05/14 08:32:21;;;;;;;5.72;3.10;;;23.20;88.10;;;;;;5838954;29;94124;-64
2022/05/14 08:35:24;;;;;;;8.75;3.25;;;23.10;87.00;;;;;;5834635;29;94270;-62
2022/05/14 08:38:26;;;;;;;7.38;3.38;;;23.20;86.70;;;;;;5834943;30;94150;-62
2022/05/14 08:41:29;;;;;;;6.75;3.10;;;23.20;87.80;;;;;;5834185;29;92954;-64
2022/05/14 08:44:34;;;;;;;5.18;2.65;;;23.20;87.90;;;;;;5826365;29;92473;-63
2022/05/14 08:47:43;;;;;;;3.75;2.70;;;23.20;87.90;;;;;;5829475;29;93937;-62
2022/05/14 08:50:53;;;;;;;3.28;2.80;;;23.20;88.10;;;;;;5842642;29;94295;-63
2022/05/14 08:53:55;;;;;;;3.22;2.63;;;23.20;89.00;;;;;;5834096;29;95444;-62
2022/05/14 08:57:03;;;;;;;693.92;460.65;;;23.20;90.30;;;;;;5823010;30;94270;-63
2022/05/14 09:00:07;;;;;;;812.92;566.53;;;23.30;91.40;;;;;;5821014;29;94267;-64
2022/05/14 09:03:11;;;;;;;650.00;449.45;;;23.40;97.70;;;;;;5822678;29;94492;-62
2022/05/14 09:06:13;;;;;;;306.83;186.93;;;23.50;93.90;;;;;;5823004;29;94213;-64
2022/05/14 09:09:15;;;;;;;239.77;142.23;;;23.60;90.60;;;;;;5832536;30;94156;-63
2022/05/14 09:12:21;;;;;;;190.20;116.80;;;23.70;90.20;;;;;;5832442;29;93143;-63
2022/05/14 09:15:25;;;;;;;148.50;90.32;;;23.70;88.80;;;;;;5833011;29;93383;-63
2022/05/14 09:18:30;;;;;;;122.20;73.50;;;23.70;91.60;;;;;;5832227;29;94197;-63
2022/05/14 09:21:36;;;;;;;109.90;63.88;;;23.70;92.30;;;;;;5830713;29;94285;-64
2022/05/14 09:24:44;;;;;;;101.63;61.78;;;23.70;88.90;;;;;;5818781;30;95134;-64
2022/05/14 09:27:51;;;;;;;81.57;51.78;;;23.70;87.20;;;;;;5821471;29;94238;-63
2022/05/14 09:30:55;;;;;;;80.47;47.53;;;23.60;86.70;;;;;;5823175;29;95797;-64
2022/05/14 09:34:05;;;;;;;61.25;39.35;;;23.60;86.10;;;;;;5819511;30;94357;-64
2022/05/14 09:37:10;;;;;;;65.18;39.97;;;23.60;85.00;;;;;;5816628;29;94175;-63
2022/05/14 09:40:20;;;;;;;54.67;32.50;;;23.60;83.90;;;;;;5819261;29;94489;-64
2022/05/14 09:43:34;;;;;;;44.70;27.38;;;23.50;82.50;;;;;;5814365;30;94057;-63
2022/05/14 09:46:36;;;;;;;45.55;27.60;;;23.50;81.40;;;;;;5824760;30;93397;-62
2022/05/14 09:49:41;;;;;;;34.38;22.38;;;23.50;81.50;;;;;;5819344;29;93063;-64
2022/05/14 09:52:55;;;;;;;30.20;19.60;;;23.50;80.40;;;;;;5828731;29;94374;-63
2022/05/14 09:56:23;;;;;;;28.92;18.80;;;23.40;79.80;;;;;;5831466;29;95053;-62
2022/05/14 09:59:40;;;;;;;25.33;15.60;;;23.40;79.30;;;;;;5813938;29;94292;-63
2022/05/14 10:03:19;;;;;;;19.75;12.63;;;23.40;79.30;;;;;;5840188;29;94288;-63
2022/05/14 10:06:31;;;;;;;17.15;11.70;;;23.40;78.40;;;;;;5829004;29;95504;-63
2022/05/14 10:09:40;;;;;;;18.88;10.85;;;23.40;78.60;;;;;;5820164;29;94214;-62
2022/05/14 10:12:49;;;;;;;14.93;9.55;;;23.40;78.40;;;;;;5831519;29;94858;-62
2022/05/14 10:16:03;;;;;;;15.45;9.30;;;23.30;79.90;;;;;;5817717;29;92863;-62
2022/05/14 10:19:21;;;;;;;14.95;9.25;;;23.30;79.00;;;;;;5818867;29;93344;-63
2022/05/14 10:26:44;;;;;;;16.30;9.70;;;23.40;79.80;;;;;;5820385;30;94193;-62
2022/05/14 10:29:48;;;;;;;13.88;8.98;;;23.30;81.20;;;;;;5822683;29;93220;-62
2022/05/14 10:32:55;;;;;;;16.67;8.77;;;23.40;81.30;;;;;;5827599;29;94193;-63
2022/05/14 10:36:07;;;;;;;17.58;9.07;;;23.30;81.50;;;;;;5832317;29;94090;-62
2022/05/14 10:39:18;;;;;;;13.88;8.80;;;23.30;81.80;;;;;;5830754;29;94461;-63
2022/05/14 10:42:26;;;;;;;18.23;9.13;;;23.40;82.30;;;;;;5819761;29;95193;-62
2022/05/14 10:45:33;;;;;;;16.00;8.98;;;23.30;82.80;;;;;;5813512;30;94167;-63
2022/05/14 10:48:43;;;;;;;15.80;9.02;;;23.30;83.30;;;;;;5817432;29;94197;-63
2022/05/14 10:51:48;;;;;;;12.63;8.10;;;23.30;83.80;;;;;;5816973;29;93455;-62
2022/05/14 10:54:52;;;;;;;15.25;8.23;;;23.30;84.20;;;;;;5815528;30;94390;-62
2022/05/14 10:57:58;;;;;;;16.08;8.73;;;23.30;85.40;;;;;;5820082;30;94216;-62
2022/05/14 11:01:00;;;;;;;13.80;8.15;;;23.30;84.70;;;;;;5837357;29;93963;-63
2022/05/14 11:04:12;;;;;;;15.88;7.93;;;23.30;84.90;;;;;;5818147;29;94499;-63
2022/05/14 11:07:28;;;;;;;12.43;7.38;;;23.30;85.00;;;;;;5823397;30;94094;-62
2022/05/14 11:10:35;;;;;;;13.48;7.50;;;23.30;85.20;;;;;;5820401;30;94100;-62
2022/05/14 11:13:38;;;;;;;13.88;7.45;;;23.30;85.20;;;;;;5832031;30;93935;-63
2022/05/14 11:16:45;;;;;;;14.05;7.70;;;23.30;85.40;;;;;;5832568;29;93023;-63
2022/05/14 11:19:47;;;;;;;11.05;6.85;;;23.30;85.40;;;;;;5832405;30;94116;-63
2022/05/14 11:22:52;;;;;;;11.55;6.90;;;23.30;85.50;;;;;;5832471;30;93350;-63
2022/05/14 11:26:08;;;;;;;13.45;7.00;;;23.30;85.60;;;;;;5832528;29;94283;-63
2022/05/14 11:29:15;;;;;;;11.52;6.90;;;23.30;85.70;;;;;;5831779;30;94655;-63
2022/05/14 11:32:21;;;;;;;10.35;6.65;;;23.30;85.80;;;;;;5828714;29;94969;-63
2022/05/14 11:35:23;;;;;;;11.07;6.60;;;23.30;86.00;;;;;;5830320;29;94095;-62
2022/05/14 11:38:33;;;;;;;10.15;6.20;;;23.30;86.00;;;;;;5831488;30;94662;-62
2022/05/14 11:41:39;;;;;;;12.77;6.05;;;23.30;86.10;;;;;;5830997;30;94185;-63
2022/05/14 11:44:47;;;;;;;12.05;6.40;;;23.30;86.00;;;;;;5831727;30;94148;-63
2022/05/14 11:47:57;;;;;;;9.98;5.93;;;23.30;86.00;;;;;;5833898;29;94190;-63
2022/05/14 11:51:09;;;;;;;8.15;5.30;;;23.30;86.10;;;;;;5850788;29;94191;-63
2022/05/14 11:54:15;;;;;;;8.68;5.50;;;23.30;86.10;;;;;;5831924;30;93547;-63
2022/05/14 11:57:23;;;;;;;8.80;5.35;;;23.30;86.20;;;;;;5831502;29;93144;-62
2022/05/14 12:00:30;;;;;;;8.48;5.30;;;23.30;86.20;;;;;;5838227;29;94170;-63
2022/05/14 12:03:36;;;;;;;7.38;4.90;;;23.30;86.20;;;;;;5821297;30;95159;-62
2022/05/14 12:07:00;;;;;;;8.60;4.57;;;23.30;86.40;;;;;;5831636;29;94186;-63
2022/05/14 12:10:15;;;;;;;7.35;4.88;;;23.20;86.20;;;;;;5819454;30;94497;-63
2022/05/14 12:13:24;;;;;;;7.93;4.70;;;23.30;86.90;;;;;;5818579;30;94135;-63
2022/05/14 12:16:31;;;;;;;7.28;4.47;;;23.30;86.90;;;;;;5819436;30;94149;-62
2022/05/14 12:19:37;;;;;;;8.63;4.63;;;23.30;87.30;;;;;;5827837;29;94128;-63
2022/05/14 12:22:38;;;;;;;7.40;4.72;;;23.30;87.30;;;;;;5813985;29;94132;-62
2022/05/14 12:25:44;;;;;;;7.00;3.95;;;23.30;87.50;;;;;;5835668;29;93404;-63
2022/05/14 12:28:47;;;;;;;6.85;4.15;;;23.30;87.50;;;;;;5823685;30;94226;-62
2022/05/14 12:35:20;;;;;;;7.93;4.47;;;23.30;87.40;;;;;;5823419;30;93426;-63
2022/05/14 12:38:28;;;;;;;5.95;3.88;;;23.30;87.30;;;;;;5823523;29;94647;-63
2022/05/14 12:41:32;;;;;;;6.50;4.25;;;23.30;87.20;;;;;;5834739;29;94045;-63
2022/05/14 12:44:41;;;;;;;6.63;4.07;;;23.20;87.10;;;;;;5825551;29;94122;-63
2022/05/14 12:47:44;;;;;;;6.35;4.05;;;23.30;87.10;;;;;;5832595;29;94215;-63
2022/05/14 12:50:52;;;;;;;6.15;4.00;;;23.20;87.10;;;;;;5838579;29;94166;-62
2022/05/14 12:53:54;;;;;;;5.25;3.80;;;23.30;87.10;;;;;;5834487;29;94149;-63
2022/05/14 12:56:59;;;;;;;5.45;3.80;;;23.30;87.10;;;;;;5834953;29;92362;-62
2022/05/14 13:00:02;;;;;;;4.82;3.58;;;23.20;87.00;;;;;;5838996;29;94068;-63
2022/05/14 13:03:17;;;;;;;6.30;3.63;;;23.20;87.10;;;;;;5836899;29;94411;-63
2022/05/14 13:06:22;;;;;;;6.60;3.63;;;23.20;87.10;;;;;;5833440;29;95354;-63
2022/05/14 13:09:25;;;;;;;8.70;4.05;;;23.20;86.90;;;;;;5833894;29;94187;-63
2022/05/14 13:12:29;;;;;;;5.30;3.42;;;23.20;87.00;;;;;;5834002;29;94260;-63
2022/05/14 13:15:34;;;;;;;4.75;3.55;;;23.20;86.90;;;;;;5834204;29;94441;-63
2022/05/14 13:18:43;;;;;;;4.70;3.35;;;23.20;86.90;;;;;;5833927;29;93155;-63
2022/05/14 13:21:49;;;;;;;5.07;3.47;;;23.20;87.00;;;;;;5833970;29;94420;-63
2022/05/14 13:24:53;;;;;;;4.93;3.40;;;23.20;86.90;;;;;;5834310;29;94103;-63
2022/05/14 13:27:56;;;;;;;4.85;3.40;;;23.20;86.90;;;;;;5832060;29;93415;-62
2022/05/14 13:31:01;;;;;;;5.57;3.38;;;23.20;86.90;;;;;;5838589;29;94156;-63
2022/05/14 13:37:07;;;;;;;4.97;3.25;;;23.20;86.90;;;;;;5823815;29;94302;-63
2022/05/14 13:37:31;;;;;;;4.30;3.28;;;23.20;86.90;;;;;;5822982;29;94750;-63
2022/05/14 13:40:38;;;;;;;4.78;3.15;;;23.20;86.80;;;;;;5824685;29;93018;-63
2022/05/14 13:43:44;;;;;;;4.22;3.50;;;23.20;86.80;;;;;;5833628;30;93386;-63
2022/05/14 13:46:53;;;;;;;6.22;3.05;;;23.10;86.80;;;;;;5833682;29;94275;-63
2022/05/14 13:49:58;;;;;;;3.38;2.95;;;23.20;86.90;;;;;;5832438;29;94551;-63
2022/05/14 13:53:01;;;;;;;5.13;2.90;;;23.20;86.80;;;;;;5833039;29;94103;-63
2022/05/14 13:56:05;;;;;;;4.97;3.13;;;23.20;86.80;;;;;;5833561;29;94609;-63
2022/05/14 13:59:09;;;;;;;4.10;3.00;;;23.20;86.80;;;;;;5830662;29;93377;-63
2022/05/14 14:02:23;;;;;;;3.75;2.83;;;23.20;86.90;;;;;;5837516;29;92936;-63
2022/05/14 14:05:25;;;;;;;3.10;2.60;;;23.20;86.90;;;;;;5813403;29;94411;-63
2022/05/14 14:08:29;;;;;;;4.20;2.83;;;23.20;86.80;;;;;;5832828;29;95035;-63
2022/05/14 14:11:32;;;;;;;3.55;2.78;;;23.20;86.80;;;;;;5833823;29;94076;-62
2022/05/14 14:14:34;;;;;;;3.55;2.70;;;23.20;86.80;;;;;;5833036;29;94301;-62
2022/05/14 14:17:37;;;;;;;3.22;2.70;;;23.20;86.70;;;;;;5832825;30;94278;-63
2022/05/14 14:20:44;;;;;;;3.70;2.65;;;23.20;86.80;;;;;;5833198;30;94185;-63
2022/05/14 14:23:50;;;;;;;3.90;2.97;;;23.20;86.80;;;;;;5814423;30;94689;-63
2022/05/14 14:26:53;;;;;;;3.97;2.67;;;23.20;86.80;;;;;;5829055;29;94135;-63
2022/05/14 14:29:57;;;;;;;3.85;2.78;;;23.20;86.90;;;;;;5833147;30;93433;-63
2022/05/14 14:33:01;;;;;;;2.92;2.63;;;23.20;86.70;;;;;;5833585;29;94396;-63
2022/05/14 14:36:04;;;;;;;3.03;2.72;;;23.20;86.90;;;;;;5825583;29;94580;-63
2022/05/14 14:39:07;;;;;;;3.63;2.70;;;23.20;86.80;;;;;;5830803;29;95092;-63
2022/05/14 14:42:10;;;;;;;3.58;2.70;;;23.20;86.80;;;;;;5832480;30;94192;-64
2022/05/14 14:45:13;;;;;;;3.17;2.88;;;23.20;86.70;;;;;;5832789;29;94399;-63
2022/05/14 14:48:17;;;;;;;3.25;2.80;;;23.20;86.80;;;;;;5827601;29;94711;-63
2022/05/14 14:51:19;;;;;;;2.95;2.60;;;23.10;87.50;;;;;;5835778;29;94287;-63
2022/05/14 14:54:21;;;;;;;2.88;2.50;;;23.10;86.70;;;;;;5832795;30;94069;-63
2022/05/14 14:57:23;;;;;;;4.03;2.60;;;23.20;86.70;;;;;;5830921;30;94263;-63
2022/05/14 15:00:28;;;;;;;3.45;2.65;;;23.20;86.60;;;;;;5826409;29;93536;-63
2022/05/14 15:03:39;;;;;;;2.92;2.67;;;23.20;86.60;;;;;;5832316;29;94065;-63
2022/05/14 15:06:43;;;;;;;3.65;2.53;;;23.20;86.60;;;;;;5821791;30;95019;-63
2022/05/14 15:09:46;;;;;;;3.10;2.60;;;23.10;86.60;;;;;;5831620;30;95151;-63
2022/05/14 15:12:48;;;;;;;3.78;2.38;;;23.20;86.60;;;;;;5821020;29;94170;-63
2022/05/14 15:15:50;;;;;;;2.90;2.60;;;23.10;86.50;;;;;;5832294;30;94163;-63
2022/05/14 15:18:53;;;;;;;4.13;2.65;;;23.20;87.50;;;;;;5825670;30;94175;-63
2022/05/14 15:21:57;;;;;;;2.60;2.40;;;23.20;86.70;;;;;;5827165;30;94159;-63
2022/05/14 15:25:00;;;;;;;2.83;2.63;;;23.10;86.60;;;;;;5832323;30;94319;-63
2022/05/14 15:28:05;;;;;;;3.05;2.40;;;23.20;86.70;;;;;;5832416;30;94194;-63
2022/05/14 15:31:12;;;;;;;2.78;2.58;;;23.20;86.70;;;;;;5837613;29;93449;-63
2022/05/14 15:34:16;;;;;;;2.70;2.40;;;23.10;86.60;;;;;;5830674;29;94134;-63
2022/05/14 15:37:18;;;;;;;3.47;2.80;;;23.20;86.70;;;;;;5810775;30;94133;-63
2022/05/14 15:40:41;;;;;;;2.50;2.30;;;23.10;86.60;;;;;;5831633;29;95121;-63
2022/05/14 15:43:45;;;;;;;2.60;2.25;;;23.20;86.60;;;;;;5822017;29;94454;-63
2022/05/14 15:46:52;;;;;;;3.70;2.55;;;23.20;86.60;;;;;;5820779;30;95039;-63
2022/05/14 15:49:59;;;;;;;2.70;2.50;;;23.20;86.60;;;;;;5825824;29;94089;-63
2022/05/14 15:53:07;;;;;;;3.17;2.30;;;23.10;86.60;;;;;;5834656;29;94114;-63
2022/05/14 15:56:09;;;;;;;2.60;2.40;;;23.10;86.60;;;;;;5823191;29;94162;-62
2022/05/14 15:59:12;;;;;;;2.95;2.30;;;23.10;86.60;;;;;;5834766;29;94567;-63
2022/05/14 16:02:14;;;;;;;3.58;2.50;;;23.10;86.60;;;;;;5842163;29;93634;-63
2022/05/14 16:08:38;;;;;;;2.40;2.20;;;23.10;86.60;;;;;;5834990;30;94820;-63
2022/05/14 16:18:19;;;;;;;2.22;2.03;;;23.20;86.60;;;;;;5815566;29;94858;-63
2022/05/14 16:21:24;;;;;;;2.80;2.40;;;23.10;86.60;;;;;;5834757;29;94224;-63
2022/05/14 16:24:26;;;;;;;2.50;2.30;;;23.10;86.60;;;;;;5835199;29;94103;-63
2022/05/14 16:27:28;;;;;;;2.50;2.30;;;23.10;86.50;;;;;;5835089;29;94147;-63
2022/05/14 16:30:30;;;;;;;2.80;2.22;;;23.20;87.40;;;;;;5837740;29;94246;-63
2022/05/14 16:33:32;;;;;;;2.60;2.20;;;23.20;86.60;;;;;;5837259;29;93354;-63
2022/05/14 16:36:36;;;;;;;2.38;2.17;;;23.20;86.60;;;;;;5835160;30;94173;-62
2022/05/14 16:39:38;;;;;;;2.30;2.10;;;23.10;86.50;;;;;;5834625;30;94191;-63
2022/05/14 16:42:41;;;;;;;2.55;2.28;;;23.10;86.40;;;;;;5834511;29;95107;-63
2022/05/14 16:45:43;;;;;;;2.53;2.33;;;23.10;86.40;;;;;;5822920;29;94211;-63
2022/05/14 16:48:47;;;;;;;2.30;2.10;;;23.10;86.40;;;;;;5827591;29;94332;-64
2022/05/14 16:51:52;;;;;;;2.53;2.28;;;23.20;86.40;;;;;;5847816;29;93760;-63
2022/05/14 16:54:54;;;;;;;2.50;2.30;;;23.10;86.40;;;;;;5827543;29;94082;-63
2022/05/14 16:57:57;;;;;;;2.78;2.20;;;23.10;86.40;;;;;;5824504;29;94133;-63
2022/05/14 17:00:59;;;;;;;2.42;2.10;;;23.10;86.40;;;;;;5835975;29;94373;-63
2022/05/14 17:04:02;;;;;;;2.42;2.10;;;23.10;86.50;;;;;;5823511;30;93366;-63
2022/05/14 17:07:05;;;;;;;2.03;1.83;;;23.10;86.40;;;;;;5834382;29;94626;-63
2022/05/14 17:10:10;;;;;;;1.98;1.80;;;23.10;86.40;;;;;;5833292;29;94473;-63
2022/05/14 17:13:13;;;;;;;2.28;2.08;;;23.10;86.40;;;;;;5834003;30;95090;-64
2022/05/14 17:16:15;;;;;;;2.40;2.08;;;23.10;86.30;;;;;;5834405;29;94114;-63
2022/05/14 17:19:18;;;;;;;2.30;2.10;;;23.10;86.40;;;;;;5833952;29;93044;-63
2022/05/14 17:22:21;;;;;;;2.85;2.10;;;23.10;86.30;;;;;;5833934;29;94176;-63
2022/05/14 17:25:23;;;;;;;2.90;2.35;;;23.10;86.30;;;;;;5833965;29;94222;-63
2022/05/14 17:28:26;;;;;;;2.40;2.20;;;23.20;86.40;;;;;;5834434;29;93409;-63
2022/05/14 17:31:27;;;;;;;2.30;2.10;;;23.20;86.20;;;;;;5839151;29;94202;-63
2022/05/14 17:34:29;;;;;;;2.40;2.00;;;23.10;86.20;;;;;;5834288;29;93448;-63
2022/05/14 17:40:53;;;;;;;2.40;2.10;;;23.10;87.10;;;;;;5834269;29;92097;-63
2022/05/14 17:43:55;;;;;;;2.25;2.05;;;23.20;86.30;;;;;;5832797;29;95050;-63
2022/05/14 17:46:57;;;;;;;2.20;2.00;;;23.20;86.30;;;;;;5833290;30;94140;-63
2022/05/14 17:49:59;;;;;;;2.20;1.95;;;23.10;86.20;;;;;;5837361;29;94041;-63
2022/05/14 17:53:03;;;;;;;2.60;2.30;;;23.10;86.20;;;;;;5828514;29;92975;-63
2022/05/14 17:56:07;;;;;;;3.33;2.00;;;23.10;86.20;;;;;;5827015;30;94165;-63
2022/05/14 17:59:09;;;;;;;3.08;2.20;;;23.10;86.20;;;;;;5833527;29;94145;-63
2022/05/14 18:02:12;;;;;;;2.20;2.00;;;23.10;86.20;;;;;;5840296;29;94519;-63
2022/05/14 18:05:16;;;;;;;2.08;1.88;;;23.10;86.20;;;;;;5833738;29;94735;-63
2022/05/14 18:08:19;;;;;;;2.28;2.00;;;23.10;86.20;;;;;;5823132;30;93816;-63
2022/05/14 18:14:41;;;;;;;2.88;2.10;;;23.20;86.30;;;;;;5832968;29;93493;-63
2022/05/14 18:17:44;;;;;;;2.20;1.90;;;23.10;86.20;;;;;;5832873;29;94061;-63
2022/05/14 18:20:46;;;;;;;2.20;2.00;;;23.10;86.20;;;;;;5833249;30;94109;-63
2022/05/14 18:23:49;;;;;;;2.10;1.90;;;23.10;86.20;;;;;;5832930;29;94304;-64
2022/05/14 18:26:55;;;;;;;2.00;1.90;;;23.10;86.20;;;;;;5833085;29;94207;-63
2022/05/14 18:30:01;;;;;;;2.00;1.80;;;23.20;86.30;;;;;;5821671;29;94122;-63
2022/05/14 18:33:07;;;;;;;2.05;1.85;;;23.10;86.20;;;;;;5838850;29;94125;-63
2022/05/14 18:36:11;;;;;;;2.20;2.00;;;23.10;86.20;;;;;;5832981;30;92364;-63
2022/05/14 18:39:16;;;;;;;2.65;2.00;;;23.10;86.20;;;;;;5832984;29;94096;-63
2022/05/14 18:42:19;;;;;;;1.98;1.88;;;23.10;86.10;;;;;;5833058;30;94169;-63
2022/05/14 18:45:22;;;;;;;2.30;2.03;;;23.10;86.10;;;;;;5832137;29;95034;-63
2022/05/14 18:48:24;;;;;;;2.20;2.00;;;23.10;86.10;;;;;;5832715;29;94529;-63
2022/05/14 18:51:26;;;;;;;2.28;2.08;;;23.10;86.10;;;;;;5846654;29;94278;-63
2022/05/14 18:54:29;;;;;;;2.10;1.83;;;23.10;86.00;;;;;;5832340;29;94085;-63
2022/05/14 18:57:31;;;;;;;1.80;1.70;;;23.10;86.00;;;;;;5832727;30;94074;-63
2022/05/14 19:00:34;;;;;;;2.00;1.80;;;23.10;85.90;;;;;;5838507;29;94159;-63
2022/05/14 19:03:36;;;;;;;1.90;1.80;;;23.10;85.90;;;;;;5822255;30;94080;-63
2022/05/14 19:10:01;;;;;;;1.92;1.80;;;23.10;85.90;;;;;;5822589;30;93644;-63
2022/05/14 19:13:03;;;;;;;1.80;1.70;;;23.10;85.90;;;;;;5832538;30;94184;-63
2022/05/14 19:16:06;;;;;;;1.90;1.70;;;23.10;85.90;;;;;;5831460;29;95156;-63
2022/05/14 19:19:08;;;;;;;2.03;1.65;;;23.10;85.80;;;;;;5832133;29;94121;-64
2022/05/14 19:22:12;;;;;;;2.17;1.70;;;23.10;85.90;;;;;;5831220;30;94195;-64
2022/05/14 19:25:15;;;;;;;1.98;1.88;;;23.10;85.90;;;;;;5833392;29;94406;-64
2022/05/14 19:28:17;;;;;;;1.98;1.77;;;23.10;85.90;;;;;;5836250;30;93138;-63
2022/05/14 19:31:19;;;;;;;2.10;1.90;;;23.10;85.90;;;;;;5841641;29;94171;-64
2022/05/14 19:34:22;;;;;;;2.97;1.92;;;23.10;85.80;;;;;;5835710;29;94161;-63
2022/05/14 19:37:28;;;;;;;2.20;1.80;;;23.10;85.80;;;;;;5836327;29;93544;-63
2022/05/14 19:40:36;;;;;;;2.72;1.83;;;23.10;85.80;;;;;;5835844;29;94599;-63
2022/05/14 19:43:40;;;;;;;1.80;1.70;;;23.10;85.70;;;;;;5835826;30;94439;-63
2022/05/14 19:46:44;;;;;;;2.13;1.80;;;23.10;85.60;;;;;;5824679;29;95125;-63
2022/05/14 19:49:47;;;;;;;2.10;1.90;;;23.10;85.70;;;;;;5842508;29;92965;-63
2022/05/14 19:52:49;;;;;;;2.00;1.80;;;23.10;85.60;;;;;;5842056;29;94113;-63
2022/05/14 19:55:53;;;;;;;2.17;1.85;;;23.10;85.60;;;;;;5835858;29;94035;-63
2022/05/14 19:58:55;;;;;;;2.08;1.90;;;23.10;85.60;;;;;;5822935;30;94355;-62
2022/05/14 20:01:57;;;;;;;1.95;1.77;;;23.10;85.50;;;;;;5829063;29;94302;-63
2022/05/14 20:04:59;;;;;;;1.88;1.77;;;23.10;85.50;;;;;;5813951;30;94158;-63
2022/05/14 20:08:01;;;;;;;2.63;1.77;;;23.10;85.60;;;;;;5823005;29;93507;-63
2022/05/14 20:11:05;;;;;;;2.20;1.90;;;23.10;85.60;;;;;;5835412;29;94236;-63
2022/05/14 20:14:08;;;;;;;2.05;1.85;;;23.10;85.60;;;;;;5828474;30;94190;-63
2022/05/14 20:23:50;;;;;;;2.03;1.83;;;23.10;85.50;;;;;;5835593;30;92284;-64
2022/05/14 20:26:53;;;;;;;1.80;1.70;;;23.10;85.50;;;;;;5835047;29;93054;-63
2022/05/14 20:29:55;;;;;;;3.40;1.88;;;23.10;85.50;;;;;;5835322;29;94174;-63
2022/05/14 20:32:57;;;;;;;2.03;1.80;;;23.10;85.50;;;;;;5839781;29;94169;-63
2022/05/14 20:36:00;;;;;;;1.65;1.55;;;23.10;85.50;;;;;;5835140;29;94281;-63
2022/05/14 20:39:02;;;;;;;2.10;1.90;;;23.10;85.50;;;;;;5835688;29;93607;-63
2022/05/14 20:42:06;;;;;;;2.03;1.83;;;23.10;85.50;;;;;;5834930;29;94368;-62
2022/05/14 20:45:09;;;;;;;1.92;1.80;;;23.10;85.50;;;;;;5834685;30;94503;-63
2022/05/14 20:48:12;;;;;;;3.08;1.60;;;23.10;86.30;;;;;;5833709;29;95132;-63
2022/05/14 20:51:14;;;;;;;2.83;2.05;;;23.10;85.50;;;;;;5837985;29;94141;-63
2022/05/14 20:54:16;;;;;;;2.42;1.70;;;23.10;85.40;;;;;;5834387;29;94104;-63
2022/05/14 20:57:22;;;;;;;2.20;1.80;;;23.10;85.50;;;;;;5834435;29;94099;-62
2022/05/14 21:00:25;;;;;;;2.03;1.83;;;23.10;85.50;;;;;;5841793;29;94037;-63
2022/05/14 21:03:27;;;;;;;2.00;1.80;;;23.10;85.50;;;;;;5834918;29;94010;-62
2022/05/14 21:06:29;;;;;;;2.10;1.90;;;23.10;85.50;;;;;;5834656;29;93021;-63
2022/05/14 21:09:33;;;;;;;2.60;1.90;;;23.10;85.50;;;;;;5833984;30;93434;-63
2022/05/14 21:12:38;;;;;;;2.13;1.98;;;23.10;85.50;;;;;;5827091;30;95651;-62
2022/05/14 21:15:59;;;;;;;2.25;2.05;;;23.10;85.50;;;;;;5829898;29;92221;-63
2022/05/14 21:19:01;;;;;;;2.17;1.98;;;23.10;85.50;;;;;;5833872;29;95388;-63
2022/05/14 21:22:04;;;;;;;2.38;1.92;;;23.10;85.50;;;;;;5834155;29;94295;-63
2022/05/14 21:25:08;;;;;;;4.13;2.25;;;23.10;85.50;;;;;;5822769;29;94256;-63
2022/05/14 21:28:11;;;;;;;2.58;2.38;;;23.10;85.50;;;;;;5833991;29;94180;-63
2022/05/14 21:31:13;;;;;;;2.25;2.05;;;23.10;85.50;;;;;;5838657;29;93194;-63
2022/05/14 21:37:40;;;;;;;2.67;2.17;;;23.10;85.50;;;;;;5833771;30;92362;-63
2022/05/14 21:40:43;;;;;;;2.60;2.30;;;23.10;85.50;;;;;;5832527;29;93507;-63
2022/05/14 21:43:46;;;;;;;3.08;2.47;;;23.10;85.50;;;;;;5824417;29;94156;-62
2022/05/14 21:46:48;;;;;;;3.20;2.60;;;23.00;85.40;;;;;;5831808;29;94162;-63
2022/05/14 21:49:50;;;;;;;2.80;2.60;;;23.10;85.50;;;;;;5832528;29;95142;-63
2022/05/14 21:52:54;;;;;;;4.10;2.90;;;23.00;85.40;;;;;;5834682;29;94168;-63
2022/05/14 21:55:56;;;;;;;3.10;2.80;;;23.10;85.50;;;;;;5825005;29;94093;-63
2022/05/14 21:58:59;;;;;;;3.42;3.13;;;23.00;85.40;;;;;;5832230;29;94111;-63
2022/05/14 22:02:05;;;;;;;3.33;3.03;;;23.10;85.50;;;;;;5839306;29;94189;-63
2022/05/14 22:05:07;;;;;;;3.67;3.33;;;23.00;85.50;;;;;;5843908;29;94157;-64